Cathma — PJTL — position and weather

sailwx.info

Track history (hours):
 
Tides and Currents Weather Stations Pressure Air Temp Water Temp Dewpoint Dewpoint Depression Visibility Wind Speed Wind Dir Waves Ship Positions

Cathma

Last reported at 2014-Sep-12 21:21 UTC. Time now 2014-Sep-18 17:45 UTC.
Position N 57°26' E 017°49'.

Length 111 m; draft 6.3 m.

Type: Ship. MMSI: 306832000.

Date/timePositionNaut miles runAvg speedWind from/ knotsBaromVisibWave heightAir tempDewpointWater temp
2014-Sep-12 21:21N 57°26' E 017°49'810.4
2014-Sep-12 20:33N 57°19' E 017°43'1010.5
2014-Sep-12 19:33N 57°09' E 017°36'1110.4
2014-Sep-12 18:33N 56°59' E 017°29'1010.1
2014-Sep-12 17:33N 56°50' E 017°22'119 9.8
2014-Sep-12 05:25N 55°06' E 015°36'8 9.6
2014-Sep-12 04:33N 54°59' E 015°30'68 9.7
2014-Sep-11 21:33N 54°04' E 014°21'8 8.4
2014-Sep-11 20:33N 53°56' E 014°17'6 6.4
2014-Sep-11 19:33N 53°50' E 014°19'1010.0
2014-Sep-11 18:33N 53°42' E 014°29'10 9.8
2014-Sep-11 17:33N 53°33' E 014°37'8 8.4
2014-Sep-11 16:33N 53°25' E 014°37'1 0.9
2014-Sep-11 15:32N 53°25' E 014°35'0 0.0
2014-Sep-11 14:31N 53°25' E 014°35'0 0.0
2014-Sep-11 13:28N 53°25' E 014°35'0 0.0
2014-Sep-11 08:29N 53°25' E 014°35'0 0.0
2014-Sep-11 07:28N 53°25' E 014°35'0 0.0
2014-Sep-11 05:21N 53°25' E 014°35'0 0.0
2014-Sep-11 04:21N 53°25' E 014°35'0 0.0
2014-Sep-11 03:26N 53°25' E 014°35'0 0.0
2014-Sep-11 02:32N 53°25' E 014°35'0 0.0
2014-Sep-11 01:32N 53°25' E 014°35'0 0.0
2014-Sep-11 00:25N 53°25' E 014°35'0 0.0
2014-Sep-10 23:03N 53°25' E 014°35'0 0.0
2014-Sep-10 22:33N 53°25' E 014°35'0 0.0
2014-Sep-10 21:33N 53°25' E 014°35'0 0.0
2014-Sep-10 18:28N 53°25' E 014°35'0 0.0
2014-Sep-10 17:19N 53°25' E 014°35'0 0.0
2014-Sep-10 16:28N 53°25' E 014°35'0 0.0
2014-Sep-10 15:27N 53°25' E 014°35'0 0.0
2014-Sep-10 14:09N 53°25' E 014°35'0 0.0
2014-Sep-10 13:28N 53°25' E 014°35'0 0.0
2014-Sep-10 12:32N 53°25' E 014°35'0 0.0
2014-Sep-10 11:25N 53°25' E 014°35'0 0.0
2014-Sep-10 10:31N 53°25' E 014°35'0 0.0
2014-Sep-10 09:31N 53°25' E 014°35'0 0.0
2014-Sep-10 08:24N 53°25' E 014°35'0 0.0
2014-Sep-10 07:30N 53°25' E 014°35'0 0.0
2014-Sep-10 06:29N 53°25' E 014°35'0 0.0
2014-Sep-10 05:17N 53°25' E 014°35'0 0.0
2014-Sep-10 04:28N 53°25' E 014°35'0 0.0
2014-Sep-10 03:28N 53°25' E 014°35'0 0.0
2014-Sep-10 02:28N 53°25' E 014°35'0 0.0
2014-Sep-10 01:33N 53°25' E 014°35'0 0.0
2014-Sep-10 00:33N 53°25' E 014°35'0 0.0
2014-Sep-09 23:32N 53°25' E 014°35'0 0.0
2014-Sep-09 22:32N 53°25' E 014°35'0 0.0
2014-Sep-09 21:31N 53°25' E 014°35'0 0.0
2014-Sep-09 20:31N 53°25' E 014°35'0 0.0
2014-Sep-09 19:31N 53°25' E 014°35'0 0.0
2014-Sep-09 18:18N 53°25' E 014°35'0 0.0
2014-Sep-09 17:30N 53°25' E 014°35'0 0.0
2014-Sep-09 16:29N 53°25' E 014°35'0 0.0
2014-Sep-09 15:23N 53°25' E 014°35'0 0.0
2014-Sep-09 14:31N 53°25' E 014°35'0 0.0
2014-Sep-09 13:31N 53°25' E 014°35'0 0.0
2014-Sep-09 12:34N 53°25' E 014°35'0 0.0
2014-Sep-09 11:33N 53°25' E 014°35'0 0.0
2014-Sep-09 10:33N 53°25' E 014°35'0 0.0
2014-Sep-09 09:32N 53°25' E 014°35'0 0.0
2014-Sep-09 08:32N 53°25' E 014°35'0 0.0
2014-Sep-09 07:19N 53°25' E 014°35'0 0.0
2014-Sep-09 06:31N 53°25' E 014°35'0 0.0
2014-Sep-09 05:34N 53°25' E 014°35'0 0.0
2014-Sep-09 04:33N 53°25' E 014°35'0 0.0
2014-Sep-09 03:30N 53°25' E 014°35'0 0.0
2014-Sep-09 02:29N 53°25' E 014°35'0 0.0
2014-Sep-09 01:29N 53°25' E 014°35'0 0.0
2014-Sep-09 00:28N 53°25' E 014°35'0 0.0
2014-Sep-08 23:22N 53°25' E 014°35'0 0.0
2014-Sep-08 22:33N 53°25' E 014°35'0 0.0
2014-Sep-08 21:33N 53°25' E 014°35'0 0.0
2014-Sep-08 20:33N 53°25' E 014°35'0 0.0
2014-Sep-08 19:32N 53°25' E 014°35'0 0.0
2014-Sep-08 18:32N 53°25' E 014°35'0 0.0
2014-Sep-08 17:31N 53°25' E 014°35'0 0.0
2014-Sep-08 16:31N 53°25' E 014°35'0 0.0
2014-Sep-08 15:33N 53°25' E 014°35'0 0.0
2014-Sep-08 14:33N 53°25' E 014°35'2 2.5
2014-Sep-08 13:33N 53°28' E 014°36'9 8.7
2014-Sep-08 12:32N 53°36' E 014°35'1111.3
2014-Sep-08 11:33N 53°45' E 014°24'9 8.8
2014-Sep-08 10:33N 53°53' E 014°16'6 5.7
2014-Sep-08 09:33N 53°58' E 014°16'1111.2
2014-Sep-08 08:34N 54°09' E 014°12'1111.0
2014-Sep-08 07:33N 54°18' E 014°01'1211.8
2014-Sep-08 06:33N 54°28' E 013°50'1211.8
2014-Sep-08 05:33N 54°38' E 013°39'1111.4
2014-Sep-08 04:33N 54°46' E 013°24'1311.7
2014-Sep-08 03:25N 54°46' E 013°01'1011.4
2014-Sep-08 02:33N 54°42' E 012°46'1111.5
2014-Sep-08 01:33N 54°36' E 012°29'1010.4
2014-Sep-08 00:33N 54°29' E 012°16'115 6.4
2014-Sep-07 06:32N 53°54' E 009°09'5 4.9
2014-Sep-07 05:33N 53°52' E 009°01'9 9.1
2014-Sep-07 04:33N 53°51' E 008°46'9 9.2
2014-Sep-07 03:33N 53°58' E 008°35'10 9.8
2014-Sep-07 02:33N 53°60' E 008°19'1111.0
2014-Sep-07 01:33N 53°58' E 008°01'54 4.5
2014-Sep-06 13:31N 53°20' E 006°56'0 0.0
2014-Sep-06 12:28N 53°20' E 006°56'0 0.0
2014-Sep-06 11:33N 53°20' E 006°56'0 0.0
2014-Sep-06 10:30N 53°20' E 006°56'0 0.0
2014-Sep-06 09:33N 53°20' E 006°56'0 0.0
2014-Sep-06 08:32N 53°20' E 006°56'0 0.0
2014-Sep-06 07:32N 53°20' E 006°56'0 0.0
2014-Sep-06 06:31N 53°20' E 006°56'0 0.0
2014-Sep-06 05:25N 53°20' E 006°56'0 0.0
2014-Sep-06 04:33N 53°20' E 006°56'0 0.0
2014-Sep-06 03:21N 53°20' E 006°56'0 0.0
2014-Sep-06 02:32N 53°20' E 006°56'0 0.0
2014-Sep-06 01:32N 53°20' E 006°56'0 0.0
2014-Sep-06 00:31N 53°20' E 006°56'0 0.0
2014-Sep-05 23:19N 53°20' E 006°56'0 0.0
2014-Sep-05 22:22N 53°20' E 006°56'0 0.0
2014-Sep-05 21:30N 53°20' E 006°56'0 0.0
2014-Sep-05 18:32N 53°20' E 006°56'0 0.0
2014-Sep-05 17:32N 53°20' E 006°56'0 0.0
2014-Sep-05 16:31N 53°20' E 006°56'0 0.0
2014-Sep-05 15:31N 53°20' E 006°56'0 0.0
2014-Sep-05 14:33N 53°20' E 006°56'0 0.0
2014-Sep-05 13:33N 53°20' E 006°56'0 0.0
2014-Sep-05 12:32N 53°20' E 006°56'0 0.0
2014-Sep-05 11:32N 53°20' E 006°56'0 0.0
2014-Sep-05 10:32N 53°20' E 006°56'0 0.0
2014-Sep-05 09:31N 53°20' E 006°56'0 0.0
2014-Sep-05 08:31N 53°20' E 006°56'0 0.0
2014-Sep-05 07:33N 53°20' E 006°56'0 0.0
2014-Sep-05 06:33N 53°20' E 006°56'0 0.0
2014-Sep-05 05:32N 53°20' E 006°56'0 0.1
2014-Sep-05 04:29N 53°20' E 006°56'0 0.1
2014-Sep-05 03:31N 53°20' E 006°56'0 0.0
2014-Sep-05 02:31N 53°20' E 006°56'0 0.0
2014-Sep-05 01:31N 53°20' E 006°56'0 0.0
2014-Sep-05 00:33N 53°20' E 006°56'0 0.0
2014-Sep-04 23:33N 53°20' E 006°56'0 0.0
2014-Sep-04 22:33N 53°20' E 006°56'0 0.0
2014-Sep-04 21:32N 53°20' E 006°56'0 0.0
2014-Sep-04 20:31N 53°20' E 006°56'0 0.0
2014-Sep-04 19:28N 53°20' E 006°56'0 0.0
2014-Sep-04 18:31N 53°20' E 006°56'0 0.0
2014-Sep-04 17:33N 53°20' E 006°56'0 0.0
2014-Sep-04 16:33N 53°20' E 006°56'0 0.0
2014-Sep-04 15:32N 53°20' E 006°56'0 0.0
2014-Sep-04 14:32N 53°20' E 006°56'0 0.0
2014-Sep-04 13:31N 53°20' E 006°56'0 0.0
2014-Sep-04 12:31N 53°20' E 006°56'0 0.0
2014-Sep-04 11:31N 53°20' E 006°56'0 0.0
2014-Sep-04 10:33N 53°20' E 006°56'0 0.0
2014-Sep-04 09:33N 53°20' E 006°56'0 0.0
2014-Sep-04 08:32N 53°20' E 006°56'0 0.0
2014-Sep-04 07:32N 53°20' E 006°56'0 0.0
2014-Sep-04 06:31N 53°20' E 006°56'0 0.0
2014-Sep-04 05:28N 53°20' E 006°56'0 0.0
2014-Sep-04 04:31N 53°20' E 006°56'0 0.0
2014-Sep-04 03:33N 53°20' E 006°56'0 0.0
2014-Sep-04 02:30N 53°20' E 006°56'0 0.0
2014-Sep-04 01:32N 53°20' E 006°56'0 0.0
2014-Sep-04 00:29N 53°20' E 006°56'0 0.0
2014-Sep-03 23:31N 53°20' E 006°56'0 0.0
2014-Sep-03 22:31N 53°20' E 006°56'0 0.0
2014-Sep-03 21:31N 53°20' E 006°56'0 0.0
2014-Sep-03 20:33N 53°20' E 006°56'0 0.0
2014-Sep-03 19:33N 53°20' E 006°56'0 0.0
2014-Sep-03 18:32N 53°20' E 006°56'0 0.0
2014-Sep-03 17:23N 53°20' E 006°56'0 0.0
2014-Sep-03 16:31N 53°20' E 006°56'0 0.0
2014-Sep-03 15:28N 53°20' E 006°56'0 0.0
2014-Sep-03 14:19N 53°20' E 006°56'0 0.0
2014-Sep-03 13:33N 53°20' E 006°56'0 0.0
2014-Sep-03 12:33N 53°20' E 006°56'0 0.0
2014-Sep-03 11:32N 53°20' E 006°56'0 0.0
2014-Sep-03 10:32N 53°20' E 006°56'0 0.0
2014-Sep-03 09:31N 53°20' E 006°56'0 0.0
2014-Sep-03 08:31N 53°20' E 006°56'0 0.0
2014-Sep-03 07:31N 53°20' E 006°56'0 0.0
2014-Sep-03 06:33N 53°20' E 006°56'0 0.0
2014-Sep-03 05:33N 53°20' E 006°56'0 0.0
2014-Sep-03 04:32N 53°20' E 006°56'0 0.0
2014-Sep-03 03:32N 53°20' E 006°56'0 0.0
2014-Sep-03 02:28N 53°20' E 006°56'0 0.0
2014-Sep-03 01:31N 53°20' E 006°56'0 0.0
2014-Sep-03 00:34N 53°20' E 006°56'0 0.0
2014-Sep-02 23:33N 53°20' E 006°56'0 0.0
2014-Sep-02 22:32N 53°20' E 006°56'0 0.0
2014-Sep-02 21:32N 53°20' E 006°56'  
Track history (hours):
 
Tides and Currents Weather Stations Pressure Air Temp Water Temp Dewpoint Dewpoint Depression Visibility Wind Speed Wind Dir Waves Ship Positions

Cathma

Last reported at 2014-Sep-12 21:21 UTC. Time now 2014-Sep-18 17:45 UTC.
Position N 57°26' E 017°49'.

Length 111 m; draft 6.3 m.

Type: Ship. MMSI: 306832000.

Date/timePositionNaut miles runAvg speedWind from/ knotsBaromVisibWave heightAir tempDewpointWater temp
2014-Sep-12 21:21N 57°26' E 017°49'810.4
2014-Sep-12 20:33N 57°19' E 017°43'1010.5
2014-Sep-12 19:33N 57°09' E 017°36'1110.4
2014-Sep-12 18:33N 56°59' E 017°29'1010.1
2014-Sep-12 17:33N 56°50' E 017°22'119 9.8
2014-Sep-12 05:25N 55°06' E 015°36'8 9.6
2014-Sep-12 04:33N 54°59' E 015°30'68 9.7
2014-Sep-11 21:33N 54°04' E 014°21'8 8.4
2014-Sep-11 20:33N 53°56' E 014°17'6 6.4
2014-Sep-11 19:33N 53°50' E 014°19'1010.0
2014-Sep-11 18:33N 53°42' E 014°29'10 9.8
2014-Sep-11 17:33N 53°33' E 014°37'8 8.4
2014-Sep-11 16:33N 53°25' E 014°37'1 0.9
2014-Sep-11 15:32N 53°25' E 014°35'0 0.0
2014-Sep-11 14:31N 53°25' E 014°35'0 0.0
2014-Sep-11 13:28N 53°25' E 014°35'0 0.0
2014-Sep-11 08:29N 53°25' E 014°35'0 0.0
2014-Sep-11 07:28N 53°25' E 014°35'0 0.0
2014-Sep-11 05:21N 53°25' E 014°35'0 0.0
2014-Sep-11 04:21N 53°25' E 014°35'0 0.0
2014-Sep-11 03:26N 53°25' E 014°35'0 0.0
2014-Sep-11 02:32N 53°25' E 014°35'0 0.0
2014-Sep-11 01:32N 53°25' E 014°35'0 0.0
2014-Sep-11 00:25N 53°25' E 014°35'0 0.0
2014-Sep-10 23:03N 53°25' E 014°35'0 0.0
2014-Sep-10 22:33N 53°25' E 014°35'0 0.0
2014-Sep-10 21:33N 53°25' E 014°35'0 0.0
2014-Sep-10 18:28N 53°25' E 014°35'0 0.0
2014-Sep-10 17:19N 53°25' E 014°35'0 0.0
2014-Sep-10 16:28N 53°25' E 014°35'0 0.0
2014-Sep-10 15:27N 53°25' E 014°35'0 0.0
2014-Sep-10 14:09N 53°25' E 014°35'0 0.0
2014-Sep-10 13:28N 53°25' E 014°35'0 0.0
2014-Sep-10 12:32N 53°25' E 014°35'0 0.0
2014-Sep-10 11:25N 53°25' E 014°35'0 0.0
2014-Sep-10 10:31N 53°25' E 014°35'0 0.0
2014-Sep-10 09:31N 53°25' E 014°35'0 0.0
2014-Sep-10 08:24N 53°25' E 014°35'0 0.0
2014-Sep-10 07:30N 53°25' E 014°35'0 0.0
2014-Sep-10 06:29N 53°25' E 014°35'0 0.0
2014-Sep-10 05:17N 53°25' E 014°35'0 0.0
2014-Sep-10 04:28N 53°25' E 014°35'0 0.0
2014-Sep-10 03:28N 53°25' E 014°35'0 0.0
2014-Sep-10 02:28N 53°25' E 014°35'0 0.0
2014-Sep-10 01:33N 53°25' E 014°35'0 0.0
2014-Sep-10 00:33N 53°25' E 014°35'0 0.0
2014-Sep-09 23:32N 53°25' E 014°35'0 0.0
2014-Sep-09 22:32N 53°25' E 014°35'0 0.0
2014-Sep-09 21:31N 53°25' E 014°35'0 0.0
2014-Sep-09 20:31N 53°25' E 014°35'0 0.0
2014-Sep-09 19:31N 53°25' E 014°35'0 0.0
2014-Sep-09 18:18N 53°25' E 014°35'0 0.0
2014-Sep-09 17:30N 53°25' E 014°35'0 0.0
2014-Sep-09 16:29N 53°25' E 014°35'0 0.0
2014-Sep-09 15:23N 53°25' E 014°35'0 0.0
2014-Sep-09 14:31N 53°25' E 014°35'0 0.0
2014-Sep-09 13:31N 53°25' E 014°35'0 0.0
2014-Sep-09 12:34N 53°25' E 014°35'0 0.0
2014-Sep-09 11:33N 53°25' E 014°35'0 0.0
2014-Sep-09 10:33N 53°25' E 014°35'0 0.0
2014-Sep-09 09:32N 53°25' E 014°35'0 0.0
2014-Sep-09 08:32N 53°25' E 014°35'0 0.0
2014-Sep-09 07:19N 53°25' E 014°35'0 0.0
2014-Sep-09 06:31N 53°25' E 014°35'0 0.0
2014-Sep-09 05:34N 53°25' E 014°35'0 0.0
2014-Sep-09 04:33N 53°25' E 014°35'0 0.0
2014-Sep-09 03:30N 53°25' E 014°35'0 0.0
2014-Sep-09 02:29N 53°25' E 014°35'0 0.0
2014-Sep-09 01:29N 53°25' E 014°35'0 0.0
2014-Sep-09 00:28N 53°25' E 014°35'0 0.0
2014-Sep-08 23:22N 53°25' E 014°35'0 0.0
2014-Sep-08 22:33N 53°25' E 014°35'0 0.0
2014-Sep-08 21:33N 53°25' E 014°35'0 0.0
2014-Sep-08 20:33N 53°25' E 014°35'0 0.0
2014-Sep-08 19:32N 53°25' E 014°35'0 0.0
2014-Sep-08 18:32N 53°25' E 014°35'0 0.0
2014-Sep-08 17:31N 53°25' E 014°35'0 0.0
2014-Sep-08 16:31N 53°25' E 014°35'0 0.0
2014-Sep-08 15:33N 53°25' E 014°35'0 0.0
2014-Sep-08 14:33N 53°25' E 014°35'2 2.5
2014-Sep-08 13:33N 53°28' E 014°36'9 8.7
2014-Sep-08 12:32N 53°36' E 014°35'1111.3
2014-Sep-08 11:33N 53°45' E 014°24'9 8.8
2014-Sep-08 10:33N 53°53' E 014°16'6 5.7
2014-Sep-08 09:33N 53°58' E 014°16'1111.2
2014-Sep-08 08:34N 54°09' E 014°12'1111.0
2014-Sep-08 07:33N 54°18' E 014°01'1211.8
2014-Sep-08 06:33N 54°28' E 013°50'1211.8
2014-Sep-08 05:33N 54°38' E 013°39'1111.4
2014-Sep-08 04:33N 54°46' E 013°24'1311.7
2014-Sep-08 03:25N 54°46' E 013°01'1011.4
2014-Sep-08 02:33N 54°42' E 012°46'1111.5
2014-Sep-08 01:33N 54°36' E 012°29'1010.4
2014-Sep-08 00:33N 54°29' E 012°16'115 6.4
2014-Sep-07 06:32N 53°54' E 009°09'5 4.9
2014-Sep-07 05:33N 53°52' E 009°01'9 9.1
2014-Sep-07 04:33N 53°51' E 008°46'9 9.2
2014-Sep-07 03:33N 53°58' E 008°35'10 9.8
2014-Sep-07 02:33N 53°60' E 008°19'1111.0
2014-Sep-07 01:33N 53°58' E 008°01'54 4.5
2014-Sep-06 13:31N 53°20' E 006°56'0 0.0
2014-Sep-06 12:28N 53°20' E 006°56'0 0.0
2014-Sep-06 11:33N 53°20' E 006°56'0 0.0
2014-Sep-06 10:30N 53°20' E 006°56'0 0.0
2014-Sep-06 09:33N 53°20' E 006°56'0 0.0
2014-Sep-06 08:32N 53°20' E 006°56'0 0.0
2014-Sep-06 07:32N 53°20' E 006°56'0 0.0
2014-Sep-06 06:31N 53°20' E 006°56'0 0.0
2014-Sep-06 05:25N 53°20' E 006°56'0 0.0
2014-Sep-06 04:33N 53°20' E 006°56'0 0.0
2014-Sep-06 03:21N 53°20' E 006°56'0 0.0
2014-Sep-06 02:32N 53°20' E 006°56'0 0.0
2014-Sep-06 01:32N 53°20' E 006°56'0 0.0
2014-Sep-06 00:31N 53°20' E 006°56'0 0.0
2014-Sep-05 23:19N 53°20' E 006°56'0 0.0
2014-Sep-05 22:22N 53°20' E 006°56'0 0.0
2014-Sep-05 21:30N 53°20' E 006°56'0 0.0
2014-Sep-05 18:32N 53°20' E 006°56'0 0.0
2014-Sep-05 17:32N 53°20' E 006°56'0 0.0
2014-Sep-05 16:31N 53°20' E 006°56'0 0.0
2014-Sep-05 15:31N 53°20' E 006°56'0 0.0
2014-Sep-05 14:33N 53°20' E 006°56'0 0.0
2014-Sep-05 13:33N 53°20' E 006°56'0 0.0
2014-Sep-05 12:32N 53°20' E 006°56'0 0.0
2014-Sep-05 11:32N 53°20' E 006°56'0 0.0
2014-Sep-05 10:32N 53°20' E 006°56'0 0.0
2014-Sep-05 09:31N 53°20' E 006°56'0 0.0
2014-Sep-05 08:31N 53°20' E 006°56'0 0.0
2014-Sep-05 07:33N 53°20' E 006°56'0 0.0
2014-Sep-05 06:33N 53°20' E 006°56'0 0.0
2014-Sep-05 05:32N 53°20' E 006°56'0 0.1
2014-Sep-05 04:29N 53°20' E 006°56'0 0.1
2014-Sep-05 03:31N 53°20' E 006°56'0 0.0
2014-Sep-05 02:31N 53°20' E 006°56'0 0.0
2014-Sep-05 01:31N 53°20' E 006°56'0 0.0
2014-Sep-05 00:33N 53°20' E 006°56'0 0.0
2014-Sep-04 23:33N 53°20' E 006°56'0 0.0
2014-Sep-04 22:33N 53°20' E 006°56'0 0.0
2014-Sep-04 21:32N 53°20' E 006°56'0 0.0
2014-Sep-04 20:31N 53°20' E 006°56'0 0.0
2014-Sep-04 19:28N 53°20' E 006°56'0 0.0
2014-Sep-04 18:31N 53°20' E 006°56'0 0.0
2014-Sep-04 17:33N 53°20' E 006°56'0 0.0
2014-Sep-04 16:33N 53°20' E 006°56'0 0.0
2014-Sep-04 15:32N 53°20' E 006°56'0 0.0
2014-Sep-04 14:32N 53°20' E 006°56'0 0.0
2014-Sep-04 13:31N 53°20' E 006°56'0 0.0
2014-Sep-04 12:31N 53°20' E 006°56'0 0.0
2014-Sep-04 11:31N 53°20' E 006°56'0 0.0
2014-Sep-04 10:33N 53°20' E 006°56'0 0.0
2014-Sep-04 09:33N 53°20' E 006°56'0 0.0
2014-Sep-04 08:32N 53°20' E 006°56'0 0.0
2014-Sep-04 07:32N 53°20' E 006°56'0 0.0
2014-Sep-04 06:31N 53°20' E 006°56'0 0.0
2014-Sep-04 05:28N 53°20' E 006°56'0 0.0
2014-Sep-04 04:31N 53°20' E 006°56'0 0.0
2014-Sep-04 03:33N 53°20' E 006°56'0 0.0
2014-Sep-04 02:30N 53°20' E 006°56'0 0.0
2014-Sep-04 01:32N 53°20' E 006°56'0 0.0
2014-Sep-04 00:29N 53°20' E 006°56'0 0.0
2014-Sep-03 23:31N 53°20' E 006°56'0 0.0
2014-Sep-03 22:31N 53°20' E 006°56'0 0.0
2014-Sep-03 21:31N 53°20' E 006°56'0 0.0
2014-Sep-03 20:33N 53°20' E 006°56'0 0.0
2014-Sep-03 19:33N 53°20' E 006°56'0 0.0
2014-Sep-03 18:32N 53°20' E 006°56'0 0.0
2014-Sep-03 17:23N 53°20' E 006°56'0 0.0
2014-Sep-03 16:31N 53°20' E 006°56'0 0.0
2014-Sep-03 15:28N 53°20' E 006°56'0 0.0
2014-Sep-03 14:19N 53°20' E 006°56'0 0.0
2014-Sep-03 13:33N 53°20' E 006°56'0 0.0
2014-Sep-03 12:33N 53°20' E 006°56'0 0.0
2014-Sep-03 11:32N 53°20' E 006°56'0 0.0
2014-Sep-03 10:32N 53°20' E 006°56'0 0.0
2014-Sep-03 09:31N 53°20' E 006°56'0 0.0
2014-Sep-03 08:31N 53°20' E 006°56'0 0.0
2014-Sep-03 07:31N 53°20' E 006°56'0 0.0
2014-Sep-03 06:33N 53°20' E 006°56'0 0.0
2014-Sep-03 05:33N 53°20' E 006°56'0 0.0
2014-Sep-03 04:32N 53°20' E 006°56'0 0.0
2014-Sep-03 03:32N 53°20' E 006°56'0 0.0
2014-Sep-03 02:28N 53°20' E 006°56'0 0.0
2014-Sep-03 01:31N 53°20' E 006°56'0 0.0
2014-Sep-03 00:34N 53°20' E 006°56'0 0.0
2014-Sep-02 23:33N 53°20' E 006°56'0 0.0
2014-Sep-02 22:32N 53°20' E 006°56'0 0.0
2014-Sep-02 21:32N 53°20' E 006°56'  

Dump ship's entire track history